Time;durP1;ratioP1;P1;durP2;ratioP2;P2;SDS_P1;SDS_P2;PMS_P1;PMS_P2;Temp;Humidity;BMP_temperature;BMP_pressure;BME280_temperature;BME280_humidity;BME280_pressure;Samples;Min_cycle;Max_cycle;Signal;HPM_P1;HPM_P2
2022/05/14 00:01:50;;;;;;;7.32;1.70;;;;;;;;;;4835226;29;20076;-78
2022/05/14 00:04:16;;;;;;;4.25;1.60;;;;;;;;;;4855243;29;20060;-78
2022/05/14 00:06:41;;;;;;;3.53;1.50;;;;;;;;;;4854237;29;20453;-82
2022/05/14 00:09:07;;;;;;;4.05;1.65;;;;;;;;;;4852507;29;20052;-83
2022/05/14 00:14:17;;;;;;;6.07;1.90;;;;;;;;;;4852162;29;20044;-83
2022/05/14 00:16:42;;;;;;;4.55;1.75;;;;;;;;;;4849494;29;20038;-83
2022/05/14 00:19:09;;;;;;;4.18;1.73;;;;;;;;;;4840124;29;20048;-78
2022/05/14 00:21:35;;;;;;;3.40;1.80;;;;;;;;;;4851137;29;20477;-83
2022/05/14 00:24:02;;;;;;;6.15;1.80;;;;;;;;;;4839063;29;20037;-78
2022/05/14 00:26:27;;;;;;;4.85;1.58;;;;;;;;;;4839310;29;20465;-84
2022/05/14 00:28:53;;;;;;;4.80;1.60;;;;;;;;;;4854261;29;20104;-81
2022/05/14 00:31:18;;;;;;;5.72;1.98;;;;;;;;;;4852045;29;20408;-79
2022/05/14 00:33:45;;;;;;;4.47;1.70;;;;;;;;;;4854592;29;20081;-85
2022/05/14 00:36:12;;;;;;;3.35;1.50;;;;;;;;;;4835589;29;20433;-83
2022/05/14 00:38:38;;;;;;;4.65;1.50;;;;;;;;;;4835451;29;20480;-83
2022/05/14 00:41:06;;;;;;;5.82;1.60;;;;;;;;;;4850913;29;20029;-81
2022/05/14 00:43:34;;;;;;;3.85;1.60;;;;;;;;;;4832928;29;20029;-82
2022/05/14 00:46:46;;;;;;;4.40;1.65;;;;;;;;;;4850951;29;20140;-85
2022/05/14 00:49:14;;;;;;;5.50;1.33;;;;;;;;;;4850830;29;20121;-79
2022/05/14 00:51:42;;;;;;;5.70;2.08;;;;;;;;;;4845678;29;20037;-81
2022/05/14 00:54:12;;;;;;;2.60;1.30;;;;;;;;;;4851867;29;20033;-82
2022/05/14 00:56:41;;;;;;;3.33;1.38;;;;;;;;;;4847804;29;20033;-82
2022/05/14 00:59:13;;;;;;;4.35;1.80;;;;;;;;;;4847375;29;20056;-78
2022/05/14 01:01:39;;;;;;;5.13;1.37;;;;;;;;;;4837030;29;20081;-78
2022/05/14 01:04:05;;;;;;;4.05;1.60;;;;;;;;;;4837680;29;20116;-83
2022/05/14 01:06:33;;;;;;;6.55;1.70;;;;;;;;;;4831339;29;20061;-84
2022/05/14 01:08:59;;;;;;;3.45;1.60;;;;;;;;;;4833388;29;20033;-82
2022/05/14 01:11:26;;;;;;;3.85;1.60;;;;;;;;;;4836234;29;20038;-79
2022/05/14 01:13:52;;;;;;;3.40;1.60;;;;;;;;;;4832065;29;20033;-78
2022/05/14 01:16:20;;;;;;;2.72;1.38;;;;;;;;;;4839073;29;20530;-84
2022/05/14 01:18:45;;;;;;;4.13;1.40;;;;;;;;;;4834310;29;20033;-82
2022/05/14 01:21:35;;;;;;;3.08;1.42;;;;;;;;;;4851012;29;20104;-83
2022/05/14 01:26:54;;;;;;;4.13;1.58;;;;;;;;;;4846333;29;20134;-78
2022/05/14 01:29:22;;;;;;;4.75;1.70;;;;;;;;;;4849298;29;20116;-77
2022/05/14 01:31:49;;;;;;;3.67;1.30;;;;;;;;;;4850727;29;20037;-76
2022/05/14 01:34:19;;;;;;;4.15;1.48;;;;;;;;;;4852639;29;20101;-80
2022/05/14 01:36:44;;;;;;;7.25;1.88;;;;;;;;;;4854780;29;20072;-80
2022/05/14 01:39:10;;;;;;;3.80;1.40;;;;;;;;;;4844354;29;20050;-83
2022/05/14 01:41:36;;;;;;;4.32;1.48;;;;;;;;;;4845751;29;20109;-78
2022/05/14 01:44:02;;;;;;;2.65;1.30;;;;;;;;;;4851386;29;20132;-78
2022/05/14 01:46:28;;;;;;;5.20;1.73;;;;;;;;;;4847124;29;20033;-83
2022/05/14 01:48:53;;;;;;;4.75;1.60;;;;;;;;;;4848415;29;20599;-83
2022/05/14 01:51:19;;;;;;;3.03;1.50;;;;;;;;;;4840411;29;20037;-84
2022/05/14 01:53:45;;;;;;;5.10;1.55;;;;;;;;;;4848311;29;20124;-83
2022/05/14 01:56:10;;;;;;;3.65;1.40;;;;;;;;;;4853673;29;20499;-84
2022/05/14 01:58:36;;;;;;;3.80;1.73;;;;;;;;;;4842194;29;20033;-78
2022/05/14 02:01:07;;;;;;;4.75;1.50;;;;;;;;;;4855241;29;20109;-78
2022/05/14 02:03:32;;;;;;;3.65;1.45;;;;;;;;;;4850215;29;20053;-80
2022/05/14 02:05:58;;;;;;;4.93;1.38;;;;;;;;;;4838947;29;20109;-81
2022/05/14 02:08:23;;;;;;;3.13;1.63;;;;;;;;;;4851173;29;20025;-78
2022/05/14 02:10:48;;;;;;;4.75;1.60;;;;;;;;;;4849515;29;20061;-81
2022/05/14 02:13:13;;;;;;;6.00;1.40;;;;;;;;;;4833862;29;20044;-84
2022/05/14 02:15:40;;;;;;;4.13;1.42;;;;;;;;;;4837543;29;20477;-82
2022/05/14 02:18:05;;;;;;;3.85;1.42;;;;;;;;;;4851705;29;20405;-77
2022/05/14 02:20:30;;;;;;;3.97;1.52;;;;;;;;;;4851361;29;20032;-77
2022/05/14 02:22:56;;;;;;;2.85;1.60;;;;;;;;;;4842223;29;20156;-77
2022/05/14 02:25:21;;;;;;;4.93;1.80;;;;;;;;;;4849842;29;20080;-83
2022/05/14 02:27:46;;;;;;;5.65;1.90;;;;;;;;;;4858486;29;20038;-83
2022/05/14 02:30:13;;;;;;;3.90;2.05;;;;;;;;;;4857537;29;20049;-82
2022/05/14 02:32:38;;;;;;;6.30;1.67;;;;;;;;;;4850218;29;21728;-80
2022/05/14 02:35:05;;;;;;;4.15;1.58;;;;;;;;;;4854002;29;20098;-78
2022/05/14 02:37:30;;;;;;;4.82;1.92;;;;;;;;;;4852075;29;20025;-77
2022/05/14 02:39:56;;;;;;;3.95;1.60;;;;;;;;;;4850801;29;20036;-78
2022/05/14 02:42:21;;;;;;;3.90;1.60;;;;;;;;;;4852101;29;20037;-76
2022/05/14 02:44:46;;;;;;;3.47;1.55;;;;;;;;;;4856037;29;20537;-80
2022/05/14 02:47:12;;;;;;;5.30;1.98;;;;;;;;;;4839936;29;20040;-79
2022/05/14 02:49:37;;;;;;;3.78;1.63;;;;;;;;;;4840629;29;20029;-83
2022/05/14 02:52:05;;;;;;;4.50;1.85;;;;;;;;;;4852009;29;20025;-81
2022/05/14 02:54:30;;;;;;;4.45;1.70;;;;;;;;;;4851513;29;20139;-76
2022/05/14 02:56:56;;;;;;;5.03;1.77;;;;;;;;;;4851579;29;20113;-80
2022/05/14 02:59:21;;;;;;;5.43;1.80;;;;;;;;;;4856985;29;20911;-77
2022/05/14 03:01:50;;;;;;;4.50;1.48;;;;;;;;;;4848311;29;20069;-82
2022/05/14 03:04:18;;;;;;;6.32;1.98;;;;;;;;;;4856811;29;20484;-77
2022/05/14 03:06:43;;;;;;;4.75;1.95;;;;;;;;;;4851209;29;20041;-77
2022/05/14 03:09:09;;;;;;;3.33;1.65;;;;;;;;;;4841784;29;20094;-77
2022/05/14 03:11:34;;;;;;;6.70;1.88;;;;;;;;;;4850273;29;20058;-81
2022/05/14 03:13:59;;;;;;;5.15;2.00;;;;;;;;;;4831681;29;20034;-83
2022/05/14 03:16:25;;;;;;;6.55;1.80;;;;;;;;;;4839404;29;20040;-77
2022/05/14 03:18:50;;;;;;;4.00;1.80;;;;;;;;;;4851301;29;20757;-84
2022/05/14 03:21:15;;;;;;;4.32;1.80;;;;;;;;;;4823487;29;20037;-77
2022/05/14 03:23:40;;;;;;;5.30;2.17;;;;;;;;;;4854471;29;20040;-77
2022/05/14 03:26:06;;;;;;;3.78;1.85;;;;;;;;;;4855140;29;20033;-77
2022/05/14 03:28:31;;;;;;;5.85;1.80;;;;;;;;;;4833570;29;20021;-81
2022/05/14 03:30:57;;;;;;;2.97;1.50;;;;;;;;;;4850380;29;20463;-81
2022/05/14 03:33:23;;;;;;;4.07;1.80;;;;;;;;;;4836657;29;20113;-80
2022/05/14 03:35:48;;;;;;;5.30;2.00;;;;;;;;;;4851438;29;20029;-80
2022/05/14 03:38:13;;;;;;;5.55;2.10;;;;;;;;;;4852029;29;20661;-77
2022/05/14 03:40:39;;;;;;;6.13;1.83;;;;;;;;;;4852485;29;20440;-78
2022/05/14 03:43:04;;;;;;;3.53;2.03;;;;;;;;;;4841249;29;20049;-77
2022/05/14 03:45:30;;;;;;;5.20;2.35;;;;;;;;;;4850313;29;20542;-78
2022/05/14 03:47:55;;;;;;;5.68;2.15;;;;;;;;;;4849099;29;20041;-76
2022/05/14 03:50:20;;;;;;;4.85;2.00;;;;;;;;;;4853453;29;20029;-78
2022/05/14 03:52:46;;;;;;;6.88;2.30;;;;;;;;;;4852965;29;20132;-80
2022/05/14 03:55:11;;;;;;;6.13;2.20;;;;;;;;;;4851197;29;20107;-77
2022/05/14 03:57:37;;;;;;;4.35;2.03;;;;;;;;;;4836824;29;20124;-82
2022/05/14 04:00:07;;;;;;;4.13;2.00;;;;;;;;;;4851933;29;20057;-77
2022/05/14 04:02:33;;;;;;;6.18;2.00;;;;;;;;;;4849774;29;20457;-82
2022/05/14 04:04:58;;;;;;;3.92;1.98;;;;;;;;;;4843050;29;20040;-77
2022/05/14 04:07:23;;;;;;;4.25;2.22;;;;;;;;;;4849857;29;20104;-78
2022/05/14 04:09:49;;;;;;;4.72;2.55;;;;;;;;;;4842528;29;20029;-83
2022/05/14 04:12:14;;;;;;;8.90;2.75;;;;;;;;;;4855808;29;20037;-76
2022/05/14 04:14:39;;;;;;;6.90;2.30;;;;;;;;;;4836272;29;20034;-77
2022/05/14 04:17:05;;;;;;;5.43;2.38;;;;;;;;;;4855323;29;20450;-81
2022/05/14 04:19:31;;;;;;;5.72;2.95;;;;;;;;;;4851290;29;20033;-81
2022/05/14 04:21:56;;;;;;;6.15;2.38;;;;;;;;;;4838106;29;20034;-77
2022/05/14 04:24:22;;;;;;;5.78;2.35;;;;;;;;;;4849203;29;20507;-77
2022/05/14 04:26:47;;;;;;;6.90;3.05;;;;;;;;;;4850894;29;20067;-76
2022/05/14 04:29:12;;;;;;;6.78;2.70;;;;;;;;;;4849141;29;20025;-76
2022/05/14 04:31:39;;;;;;;5.82;2.40;;;;;;;;;;4849097;29;20070;-78
2022/05/14 04:34:05;;;;;;;5.63;2.70;;;;;;;;;;4852846;29;21161;-83
2022/05/14 04:36:31;;;;;;;8.32;3.00;;;;;;;;;;4837805;29;20026;-77
2022/05/14 04:38:56;;;;;;;7.85;3.22;;;;;;;;;;4836248;29;20030;-81
2022/05/14 04:41:22;;;;;;;5.78;2.70;;;;;;;;;;4853291;29;20029;-77
2022/05/14 04:43:47;;;;;;;6.75;3.00;;;;;;;;;;4846039;29;20034;-83
2022/05/14 04:46:12;;;;;;;6.70;2.75;;;;;;;;;;4838177;29;20034;-83
2022/05/14 04:48:38;;;;;;;5.18;2.58;;;;;;;;;;4854522;29;20576;-77
2022/05/14 04:51:04;;;;;;;10.90;3.15;;;;;;;;;;4840657;29;20149;-77
2022/05/14 04:53:29;;;;;;;5.30;2.72;;;;;;;;;;4851355;29;20088;-81
2022/05/14 04:55:55;;;;;;;5.22;2.83;;;;;;;;;;4836943;29;20049;-79
2022/05/14 04:58:20;;;;;;;6.00;3.22;;;;;;;;;;4842628;29;20120;-76
2022/05/14 05:00:46;;;;;;;6.70;3.00;;;;;;;;;;4833505;29;20037;-83
2022/05/14 05:03:17;;;;;;;7.53;3.08;;;;;;;;;;4847967;29;20029;-78
2022/05/14 05:05:45;;;;;;;8.32;3.42;;;;;;;;;;4838931;29;20476;-77
2022/05/14 05:08:10;;;;;;;7.63;3.47;;;;;;;;;;4834524;29;20519;-81
2022/05/14 05:10:36;;;;;;;6.75;3.60;;;;;;;;;;4851390;29;20057;-83
2022/05/14 05:13:02;;;;;;;6.50;3.45;;;;;;;;;;4853884;29;20026;-79
2022/05/14 05:15:28;;;;;;;7.55;3.72;;;;;;;;;;4847796;29;20151;-81
2022/05/14 05:17:53;;;;;;;8.52;4.13;;;;;;;;;;4851333;29;20098;-77
2022/05/14 05:20:19;;;;;;;7.80;3.53;;;;;;;;;;4837112;29;20475;-77
2022/05/14 05:22:44;;;;;;;7.25;3.72;;;;;;;;;;4835150;29;20065;-78
2022/05/14 05:25:12;;;;;;;7.80;4.57;;;;;;;;;;4849015;29;20029;-79
2022/05/14 05:27:37;;;;;;;7.72;4.07;;;;;;;;;;4850897;29;20037;-81
2022/05/14 05:30:04;;;;;;;8.38;3.65;;;;;;;;;;4842913;29;20040;-79
2022/05/14 05:32:30;;;;;;;8.55;4.05;;;;;;;;;;4848202;29;20037;-77
2022/05/14 05:34:55;;;;;;;7.28;3.70;;;;;;;;;;4848418;29;20480;-81
2022/05/14 05:37:20;;;;;;;7.63;3.70;;;;;;;;;;4848042;29;20109;-77
2022/05/14 05:39:45;;;;;;;8.15;4.40;;;;;;;;;;4834938;29;20086;-83
2022/05/14 05:42:11;;;;;;;8.20;4.68;;;;;;;;;;4849196;29;20036;-77
2022/05/14 05:44:36;;;;;;;7.07;4.57;;;;;;;;;;4836912;29;20045;-77
2022/05/14 05:47:09;;;;;;;7.40;4.85;;;;;;;;;;4834213;29;20033;-80
2022/05/14 05:49:36;;;;;;;8.30;4.90;;;;;;;;;;4846173;29;20385;-83
2022/05/14 05:52:02;;;;;;;11.13;5.60;;;;;;;;;;4840688;29;20071;-81
2022/05/14 05:57:11;;;;;;;11.85;5.60;;;;;;;;;;4853026;29;20052;-84
2022/05/14 05:59:37;;;;;;;9.20;5.55;;;;;;;;;;4840340;29;20030;-77
2022/05/14 06:02:02;;;;;;;13.45;6.10;;;;;;;;;;4852772;29;20061;-81
2022/05/14 06:04:28;;;;;;;9.70;5.90;;;;;;;;;;4841379;29;20041;-83
2022/05/14 06:06:53;;;;;;;11.75;5.82;;;;;;;;;;4857536;29;20483;-79
2022/05/14 06:09:25;;;;;;;12.20;6.30;;;;;;;;;;4853331;29;20033;-77
2022/05/14 06:11:50;;;;;;;11.65;6.25;;;;;;;;;;4852196;29;20369;-76
2022/05/14 06:14:16;;;;;;;14.45;6.40;;;;;;;;;;4854508;29;20081;-76
2022/05/14 06:16:42;;;;;;;11.07;6.30;;;;;;;;;;4851197;29;20061;-82
2022/05/14 06:19:08;;;;;;;10.57;6.00;;;;;;;;;;4840576;29;20030;-81
2022/05/14 06:21:35;;;;;;;11.48;6.32;;;;;;;;;;4848833;29;20037;-76
2022/05/14 06:24:00;;;;;;;14.10;5.80;;;;;;;;;;4839383;29;20029;-83
2022/05/14 06:26:25;;;;;;;11.70;5.70;;;;;;;;;;4853237;29;20041;-77
2022/05/14 06:28:51;;;;;;;17.10;6.50;;;;;;;;;;4837792;29;20432;-80
2022/05/14 06:31:17;;;;;;;14.07;6.55;;;;;;;;;;4853607;29;20041;-80
2022/05/14 06:33:44;;;;;;;10.38;5.63;;;;;;;;;;4842424;29;20083;-82
2022/05/14 06:36:10;;;;;;;14.52;6.70;;;;;;;;;;4841553;29;20404;-76
2022/05/14 06:38:35;;;;;;;12.93;6.43;;;;;;;;;;4853056;29;20038;-76
2022/05/14 06:41:11;;;;;;;12.88;6.85;;;;;;;;;;4832990;29;20040;-79
2022/05/14 06:43:37;;;;;;;14.85;6.22;;;;;;;;;;4857251;29;20085;-79
2022/05/14 06:46:03;;;;;;;10.80;6.68;;;;;;;;;;4841122;29;20025;-83
2022/05/14 06:48:29;;;;;;;14.68;7.22;;;;;;;;;;4848969;29;20070;-79
2022/05/14 06:50:58;;;;;;;14.35;6.25;;;;;;;;;;4842350;29;20480;-82
2022/05/14 06:53:24;;;;;;;11.82;6.50;;;;;;;;;;4848707;29;20034;-83
2022/05/14 06:55:53;;;;;;;11.15;6.38;;;;;;;;;;4858541;29;20033;-84
2022/05/14 06:58:24;;;;;;;13.20;7.13;;;;;;;;;;4846544;29;20037;-80
2022/05/14 07:00:50;;;;;;;13.77;6.28;;;;;;;;;;4854141;29;21301;-76
2022/05/14 07:08:44;;;;;;;12.23;5.97;;;;;;;;;;4854433;29;20059;-77
2022/05/14 07:11:10;;;;;;;22.08;6.63;;;;;;;;;;4852943;29;20034;-77
2022/05/14 07:13:36;;;;;;;14.07;6.88;;;;;;;;;;4850939;29;20041;-81
2022/05/14 07:16:02;;;;;;;12.02;6.93;;;;;;;;;;4840799;29;20069;-82
2022/05/14 07:18:31;;;;;;;13.73;7.03;;;;;;;;;;4850656;29;20042;-78
2022/05/14 07:21:00;;;;;;;16.13;6.30;;;;;;;;;;4839524;29;20484;-82
2022/05/14 07:23:25;;;;;;;14.35;7.05;;;;;;;;;;4856421;29;20164;-76
2022/05/14 07:25:51;;;;;;;10.98;6.40;;;;;;;;;;4850188;29;20132;-77
2022/05/14 07:28:17;;;;;;;13.55;6.65;;;;;;;;;;4852112;29;20078;-81
2022/05/14 07:30:43;;;;;;;10.85;6.15;;;;;;;;;;4839397;29;20037;-82
2022/05/14 07:33:09;;;;;;;11.70;6.10;;;;;;;;;;4838358;29;20033;-80
2022/05/14 07:35:35;;;;;;;9.95;6.28;;;;;;;;;;4853440;29;20060;-78
2022/05/14 07:38:03;;;;;;;13.32;6.70;;;;;;;;;;4850455;29;20028;-81
2022/05/14 07:40:31;;;;;;;17.13;6.82;;;;;;;;;;4834742;29;20037;-81
2022/05/14 07:43:08;;;;;;;13.77;7.00;;;;;;;;;;4840785;29;20113;-78
2022/05/14 07:45:40;;;;;;;13.70;7.22;;;;;;;;;;4856535;29;20048;-78
2022/05/14 07:48:10;;;;;;;12.23;6.80;;;;;;;;;;4839138;29;20029;-79
2022/05/14 07:50:35;;;;;;;14.15;7.18;;;;;;;;;;4833103;29;20026;-82
2022/05/14 07:53:02;;;;;;;13.32;6.57;;;;;;;;;;4853230;29;20041;-81
2022/05/14 07:55:27;;;;;;;13.63;6.95;;;;;;;;;;4837877;29;20460;-82
2022/05/14 07:57:52;;;;;;;12.60;7.05;;;;;;;;;;4838822;29;20033;-78
2022/05/14 08:00:19;;;;;;;11.43;6.65;;;;;;;;;;4842538;29;20528;-79
2022/05/14 08:02:46;;;;;;;13.27;7.68;;;;;;;;;;4839859;29;20716;-77
2022/05/14 08:05:14;;;;;;;15.45;7.85;;;;;;;;;;4841454;29;20049;-83
2022/05/14 08:07:39;;;;;;;12.75;7.35;;;;;;;;;;4837707;29;20040;-82
2022/05/14 08:10:07;;;;;;;16.10;6.63;;;;;;;;;;4847869;29;20029;-85
2022/05/14 08:12:38;;;;;;;12.95;6.55;;;;;;;;;;4829173;29;20117;-82
2022/05/14 08:15:05;;;;;;;14.23;7.00;;;;;;;;;;4851053;29;20097;-81
2022/05/14 08:17:31;;;;;;;11.85;6.85;;;;;;;;;;4851733;29;20076;-82
2022/05/14 08:19:57;;;;;;;16.50;7.40;;;;;;;;;;4853326;29;20579;-78
2022/05/14 08:25:07;;;;;;;12.05;7.10;;;;;;;;;;4852199;29;20906;-77
2022/05/14 08:27:44;;;;;;;12.40;6.32;;;;;;;;;;4847712;29;20033;-82
2022/05/14 08:30:36;;;;;;;13.52;6.50;;;;;;;;;;4852625;29;20034;-83
2022/05/14 08:33:04;;;;;;;14.68;6.38;;;;;;;;;;4850385;29;20056;-82
2022/05/14 08:35:30;;;;;;;14.85;6.78;;;;;;;;;;4842031;29;20037;-77
2022/05/14 08:37:56;;;;;;;15.30;6.38;;;;;;;;;;4832534;29;20512;-77
2022/05/14 08:40:42;;;;;;;14.98;6.90;;;;;;;;;;4852494;29;20037;-82
2022/05/14 08:43:15;;;;;;;11.35;6.65;;;;;;;;;;4852068;29;20621;-78
2022/05/14 08:45:50;;;;;;;11.55;6.07;;;;;;;;;;5121559;27;20405;-79
2022/05/14 08:48:39;;;;;;;12.32;6.65;;;;;;;;;;5086117;28;20484;-79
2022/05/14 08:51:11;;;;;;;13.85;6.60;;;;;;;;;;5085539;28;20439;-78
2022/05/14 08:53:43;;;;;;;12.48;6.20;;;;;;;;;;5088002;28;20024;-86
2022/05/14 08:56:21;;;;;;;13.05;6.13;;;;;;;;;;5085121;28;20028;-80
2022/05/14 08:59:25;;;;;;;11.60;5.75;;;;;;;;;;5089512;28;20036;-83
2022/05/14 09:01:58;;;;;;;12.25;6.32;;;;;;;;;;5087086;28;20487;-77
2022/05/14 09:04:24;;;;;;;13.15;6.93;;;;;;;;;;5084305;28;20454;-78
2022/05/14 09:06:50;;;;;;;12.60;7.20;;;;;;;;;;5086695;28;20062;-78
2022/05/14 09:09:16;;;;;;;11.80;6.43;;;;;;;;;;5082875;28;20024;-83
2022/05/14 09:11:52;;;;;;;10.90;6.10;;;;;;;;;;5084311;28;20039;-78
2022/05/14 09:14:33;;;;;;;13.75;5.78;;;;;;;;;;5086060;28;20459;-84
2022/05/14 09:17:20;;;;;;;14.38;7.70;;;;;;;;;;5089449;28;20031;-84
2022/05/14 09:19:52;;;;;;;12.30;6.43;;;;;;;;;;5064199;28;20024;-81
2022/05/14 09:22:53;;;;;;;16.00;6.30;;;;;;;;;;5064543;28;20078;-81
2022/05/14 09:25:24;;;;;;;13.18;6.55;;;;;;;;;;4984171;28;20042;-82
2022/05/14 09:28:16;;;;;;;12.18;5.60;;;;;;;;;;5004689;28;20032;-78
2022/05/14 09:30:52;;;;;;;12.00;6.30;;;;;;;;;;5061903;28;20407;-79
2022/05/14 09:33:40;;;;;;;9.25;6.05;;;;;;;;;;5076481;28;20029;-77
2022/05/14 09:36:22;;;;;;;12.30;6.00;;;;;;;;;;5062332;28;20032;-78
2022/05/14 09:39:00;;;;;;;13.93;6.00;;;;;;;;;;5083597;28;20017;-79
2022/05/14 09:41:25;;;;;;;11.75;6.03;;;;;;;;;;5061879;28;20051;-78
2022/05/14 09:43:55;;;;;;;14.70;7.07;;;;;;;;;;5065777;28;20044;-82
2022/05/14 09:46:27;;;;;;;11.02;6.75;;;;;;;;;;5066717;28;20566;-79
2022/05/14 09:49:00;;;;;;;11.93;6.30;;;;;;;;;;5065400;28;20541;-78
2022/05/14 09:51:54;;;;;;;12.13;5.68;;;;;;;;;;5060050;28;20489;-78
2022/05/14 09:54:28;;;;;;;11.35;5.15;;;;;;;;;;5064924;28;20153;-84
2022/05/14 09:57:07;;;;;;;17.52;7.35;;;;;;;;;;5053523;28;20434;-78
2022/05/14 09:59:41;;;;;;;9.65;5.20;;;;;;;;;;5073120;28;20025;-84
2022/05/14 10:02:25;;;;;;;14.18;6.53;;;;;;;;;;5065803;28;20032;-78
2022/05/14 10:05:39;;;;;;;10.95;4.90;;;;;;;;;;5051804;28;20029;-79
2022/05/14 10:08:12;;;;;;;10.05;4.90;;;;;;;;;;5034379;28;20052;-81
2022/05/14 10:11:10;;;;;;;10.63;4.90;;;;;;;;;;5049683;28;20040;-83
2022/05/14 10:14:00;;;;;;;12.00;5.07;;;;;;;;;;5049528;28;20118;-78
2022/05/14 10:16:40;;;;;;;10.25;4.70;;;;;;;;;;5064018;28;20025;-84
2022/05/14 10:19:41;;;;;;;11.07;4.75;;;;;;;;;;5066200;28;20055;-78
2022/05/14 10:28:52;;;;;;;8.93;4.10;;;;;;;;;;5035047;28;20129;-79
2022/05/14 10:31:37;;;;;;;9.40;4.20;;;;;;;;;;5065538;28;20036;-82
2022/05/14 10:34:07;;;;;;;9.27;4.40;;;;;;;;;;5062177;28;20017;-78
2022/05/14 10:36:48;;;;;;;8.13;4.05;;;;;;;;;;5048130;28;20702;-78
2022/05/14 10:39:24;;;;;;;9.15;3.30;;;;;;;;;;5066858;28;20031;-84
2022/05/14 10:41:58;;;;;;;8.52;3.50;;;;;;;;;;5052280;28;20028;-83
2022/05/14 10:44:41;;;;;;;10.25;3.35;;;;;;;;;;5064297;28;20472;-79
2022/05/14 10:47:09;;;;;;;8.65;3.22;;;;;;;;;;5068574;28;20059;-85
2022/05/14 10:49:47;;;;;;;8.77;4.22;;;;;;;;;;5048133;28;20111;-83
2022/05/14 10:52:16;;;;;;;9.43;3.05;;;;;;;;;;5068089;28;20028;-83
2022/05/14 10:54:43;;;;;;;9.23;4.00;;;;;;;;;;5046624;28;20040;-84
2022/05/14 10:57:27;;;;;;;6.88;3.78;;;;;;;;;;5046353;28;20032;-83
2022/05/14 11:00:02;;;;;;;10.00;3.13;;;;;;;;;;5067210;28;20027;-78
2022/05/14 11:02:33;;;;;;;8.32;3.33;;;;;;;;;;5047568;28;20551;-79
2022/05/14 11:05:00;;;;;;;7.40;3.50;;;;;;;;;;5050740;28;20031;-82
2022/05/14 11:07:33;;;;;;;8.90;3.75;;;;;;;;;;5047402;28;20029;-79
2022/05/14 11:10:31;;;;;;;10.70;3.92;;;;;;;;;;5063389;28;20116;-81
2022/05/14 11:13:09;;;;;;;8.95;4.30;;;;;;;;;;5068863;28;20039;-78
2022/05/14 11:15:35;;;;;;;9.45;4.70;;;;;;;;;;5061736;28;20036;-79
2022/05/14 11:18:10;;;;;;;10.70;3.75;;;;;;;;;;5067399;28;20028;-83
2022/05/14 11:20:37;;;;;;;8.07;3.53;;;;;;;;;;5066047;28;20020;-83
2022/05/14 11:23:06;;;;;;;13.05;4.65;;;;;;;;;;5068914;28;20021;-83
2022/05/14 11:25:31;;;;;;;8.50;3.90;;;;;;;;;;5065907;28;20040;-81
2022/05/14 11:28:12;;;;;;;9.35;4.40;;;;;;;;;;5053662;28;20028;-81
2022/05/14 11:30:49;;;;;;;11.98;4.68;;;;;;;;;;5051505;28;20040;-85
2022/05/14 11:33:20;;;;;;;11.82;5.03;;;;;;;;;;5054449;28;20112;-79
2022/05/14 11:35:47;;;;;;;9.15;4.13;;;;;;;;;;5050091;28;22315;-79
2022/05/14 11:38:32;;;;;;;9.00;4.05;;;;;;;;;;5047900;28;20033;-80
2022/05/14 11:41:31;;;;;;;11.10;4.40;;;;;;;;;;5062770;28;20443;-80
2022/05/14 11:43:57;;;;;;;8.05;3.83;;;;;;;;;;5036695;28;20037;-79
2022/05/14 11:46:32;;;;;;;12.07;5.25;;;;;;;;;;5062315;28;20047;-78
2022/05/14 11:49:04;;;;;;;7.47;4.50;;;;;;;;;;5065090;28;20537;-79
2022/05/14 11:51:35;;;;;;;8.95;4.20;;;;;;;;;;5065786;28;20110;-83
2022/05/14 11:54:17;;;;;;;10.07;3.90;;;;;;;;;;5047746;28;20031;-80
2022/05/14 11:56:52;;;;;;;6.85;4.32;;;;;;;;;;5065658;28;20031;-83
2022/05/14 11:59:27;;;;;;;8.43;4.07;;;;;;;;;;5049519;28;20024;-80
2022/05/14 12:01:53;;;;;;;9.05;4.20;;;;;;;;;;5046832;28;20392;-80
2022/05/14 12:04:39;;;;;;;9.93;4.50;;;;;;;;;;5049447;28;20029;-79
2022/05/14 12:07:49;;;;;;;10.27;4.50;;;;;;;;;;5059526;28;20392;-79
2022/05/14 12:10:45;;;;;;;10.40;3.70;;;;;;;;;;4988176;28;20026;-79
2022/05/14 12:13:13;;;;;;;7.70;3.83;;;;;;;;;;4988094;28;20061;-79
2022/05/14 12:15:54;;;;;;;8.27;3.60;;;;;;;;;;5043360;28;20074;-84
2022/05/14 12:18:20;;;;;;;7.65;4.03;;;;;;;;;;5045417;28;20028;-79
2022/05/14 12:21:01;;;;;;;12.40;4.93;;;;;;;;;;5052922;28;20112;-80
2022/05/14 12:23:45;;;;;;;11.18;4.32;;;;;;;;;;5051550;28;21503;-82
2022/05/14 12:26:32;;;;;;;9.32;4.35;;;;;;;;;;5067473;28;20040;-82
2022/05/14 12:29:00;;;;;;;9.98;4.35;;;;;;;;;;5066326;28;20020;-79
2022/05/14 12:34:17;;;;;;;10.15;5.00;;;;;;;;;;5060064;28;20075;-78
2022/05/14 12:36:46;;;;;;;8.32;4.10;;;;;;;;;;5045983;28;20119;-81
2022/05/14 12:39:21;;;;;;;9.32;3.90;;;;;;;;;;5050092;28;20024;-78
2022/05/14 12:41:52;;;;;;;7.13;3.78;;;;;;;;;;5049714;28;20044;-78
2022/05/14 12:44:23;;;;;;;7.35;4.35;;;;;;;;;;5065050;28;20111;-78
2022/05/14 12:46:54;;;;;;;8.00;3.47;;;;;;;;;;5045421;28;20028;-82
2022/05/14 12:49:24;;;;;;;11.65;4.93;;;;;;;;;;5068327;28;20039;-78
2022/05/14 12:51:53;;;;;;;9.70;3.90;;;;;;;;;;5051489;28;20041;-81
2022/05/14 12:54:27;;;;;;;6.75;4.32;;;;;;;;;;5064163;28;20052;-78
2022/05/14 12:56:56;;;;;;;9.15;4.60;;;;;;;;;;5049379;28;20032;-80
2022/05/14 12:59:22;;;;;;;10.55;4.93;;;;;;;;;;5043228;28;20020;-81
2022/05/14 13:01:51;;;;;;;12.32;4.82;;;;;;;;;;5043451;28;20123;-80
2022/05/14 13:04:19;;;;;;;8.82;4.95;;;;;;;;;;5061458;28;20032;-79
2022/05/14 13:06:45;;;;;;;10.27;4.15;;;;;;;;;;5047101;28;20473;-79
2022/05/14 13:09:18;;;;;;;8.63;4.38;;;;;;;;;;5065888;28;20040;-82
2022/05/14 13:11:47;;;;;;;7.43;4.32;;;;;;;;;;5052424;28;20437;-78
2022/05/14 13:14:25;;;;;;;9.90;4.07;;;;;;;;;;5064275;28;20067;-83
2022/05/14 13:16:57;;;;;;;10.82;4.25;;;;;;;;;;5065086;28;20040;-84
2022/05/14 13:19:31;;;;;;;6.03;3.40;;;;;;;;;;5063352;28;20028;-82
2022/05/14 13:21:57;;;;;;;9.52;4.15;;;;;;;;;;5065883;28;20269;-79
2022/05/14 13:24:22;;;;;;;9.52;3.72;;;;;;;;;;5065680;28;20111;-83
2022/05/14 13:26:50;;;;;;;10.23;3.63;;;;;;;;;;5048795;28;20024;-84
2022/05/14 13:29:21;;;;;;;7.10;3.60;;;;;;;;;;5068076;28;20040;-85
2022/05/14 13:31:48;;;;;;;8.70;3.90;;;;;;;;;;5048930;28;20123;-79
2022/05/14 13:37:16;;;;;;;7.10;3.38;;;;;;;;;;5071320;28;20074;-83
2022/05/14 13:39:47;;;;;;;8.20;3.28;;;;;;;;;;5049450;28;20799;-83
2022/05/14 13:42:39;;;;;;;7.25;3.13;;;;;;;;;;5051622;28;20119;-81
2022/05/14 13:45:18;;;;;;;7.47;3.08;;;;;;;;;;5064983;28;20476;-79
2022/05/14 13:47:50;;;;;;;6.85;3.10;;;;;;;;;;5051670;28;20024;-79
2022/05/14 13:50:25;;;;;;;7.80;3.35;;;;;;;;;;5049771;28;20025;-83
2022/05/14 13:52:53;;;;;;;8.45;3.35;;;;;;;;;;5051503;28;20032;-78
2022/05/14 13:55:35;;;;;;;6.80;2.97;;;;;;;;;;5067267;28;20100;-82
2022/05/14 13:58:07;;;;;;;9.73;3.37;;;;;;;;;;5054331;28;20458;-79
2022/05/14 14:01:07;;;;;;;7.73;3.33;;;;;;;;;;5064503;28;20123;-82
2022/05/14 14:03:52;;;;;;;9.27;3.97;;;;;;;;;;5049389;28;20055;-79
2022/05/14 14:06:18;;;;;;;8.18;3.20;;;;;;;;;;5054128;28;20023;-82
2022/05/14 14:08:44;;;;;;;10.25;3.58;;;;;;;;;;5061504;28;20037;-82
2022/05/14 14:11:10;;;;;;;9.27;3.58;;;;;;;;;;5044550;28;20032;-79
2022/05/14 14:13:35;;;;;;;10.32;3.92;;;;;;;;;;5053201;28;20127;-82
2022/05/14 14:16:01;;;;;;;8.43;3.50;;;;;;;;;;5048081;28;20112;-79
2022/05/14 14:18:26;;;;;;;12.10;3.22;;;;;;;;;;5044770;28;20024;-83
2022/05/14 14:20:56;;;;;;;9.50;3.25;;;;;;;;;;5050286;28;20029;-82
2022/05/14 14:23:26;;;;;;;8.93;3.13;;;;;;;;;;5063933;28;20024;-81
2022/05/14 14:25:52;;;;;;;7.28;3.33;;;;;;;;;;5063228;28;20107;-82
2022/05/14 14:28:19;;;;;;;8.75;3.58;;;;;;;;;;5061019;28;20376;-82
2022/05/14 14:30:45;;;;;;;10.98;3.00;;;;;;;;;;5052171;28;20021;-81
2022/05/14 14:33:11;;;;;;;8.05;3.15;;;;;;;;;;5049581;28;20473;-80
2022/05/14 14:35:37;;;;;;;7.70;2.78;;;;;;;;;;5050890;28;20020;-80
2022/05/14 14:38:03;;;;;;;8.85;3.10;;;;;;;;;;5051167;28;20047;-83
2022/05/14 14:40:28;;;;;;;7.60;3.13;;;;;;;;;;5049144;28;20508;-80
2022/05/14 14:42:53;;;;;;;7.95;3.58;;;;;;;;;;5048617;28;20035;-78
2022/05/14 14:45:20;;;;;;;9.05;3.53;;;;;;;;;;5054156;28;20131;-84
2022/05/14 14:47:48;;;;;;;8.68;4.00;;;;;;;;;;5065813;28;20029;-80
2022/05/14 14:50:15;;;;;;;7.85;3.38;;;;;;;;;;5051079;28;20025;-80
2022/05/14 14:52:41;;;;;;;8.60;4.13;;;;;;;;;;5052223;28;20028;-80
2022/05/14 14:55:07;;;;;;;9.88;3.78;;;;;;;;;;5067943;28;20047;-80
2022/05/14 14:57:33;;;;;;;8.70;3.47;;;;;;;;;;5051141;28;20107;-77
2022/05/14 14:59:58;;;;;;;8.35;3.17;;;;;;;;;;5047778;28;20012;-82
2022/05/14 15:02:30;;;;;;;10.55;3.30;;;;;;;;;;5045192;28;20078;-81
2022/05/14 15:05:11;;;;;;;10.27;3.30;;;;;;;;;;5046261;28;20032;-78
2022/05/14 15:07:39;;;;;;;9.48;3.75;;;;;;;;;;5043787;28;20028;-80
2022/05/14 15:10:07;;;;;;;9.35;3.83;;;;;;;;;;5064773;28;20061;-77
2022/05/14 15:12:33;;;;;;;8.63;3.30;;;;;;;;;;5051528;28;20125;-82
2022/05/14 15:14:59;;;;;;;9.07;3.55;;;;;;;;;;5048597;28;20020;-78
2022/05/14 15:17:44;;;;;;;9.02;3.08;;;;;;;;;;5051604;28;20037;-80
2022/05/14 15:20:16;;;;;;;7.80;3.17;;;;;;;;;;5050596;28;20112;-80
2022/05/14 15:22:47;;;;;;;9.50;3.60;;;;;;;;;;5052649;28;20028;-83
2022/05/14 15:25:18;;;;;;;9.07;2.92;;;;;;;;;;5064754;28;20068;-82